Time;durP1;ratioP1;P1;durP2;ratioP2;P2;SDS_P1;SDS_P2;PMS_P1;PMS_P2;Temp;Humidity;BMP_temperature;BMP_pressure;BME280_temperature;BME280_humidity;BME280_pressure;Samples;Min_cycle;Max_cycle;Signal;HPM_P1;HPM_P2
2023/10/05 00:00:39;;;;;;;15.70;7.80;;;;;;;9.87;100.00;99693.62;138017;1269;22053;-78
2023/10/05 00:04:01;;;;;;;14.50;8.20;;;;;;;9.85;100.00;99692.37;138063;1269;22061;-78
2023/10/05 00:07:04;;;;;;;20.30;8.90;;;;;;;9.86;100.00;99689.25;138064;1269;22444;-78
2023/10/05 00:10:09;;;;;;;;;;;;;;;9.87;100.00;99684.23;138041;1269;22398;-77
2023/10/05 00:13:10;;;;;;;70.20;11.60;;;;;;;9.86;100.00;99679.34;138034;1269;22057;-79
2023/10/05 00:16:11;;;;;;;30.50;9.70;;;;;;;9.89;100.00;99682.91;138027;1269;22068;-78
2023/10/05 00:19:12;;;;;;;13.20;8.20;;;;;;;9.92;100.00;99679.33;138023;1269;22060;-77
2023/10/05 00:22:13;;;;;;;14.20;8.00;;;;;;;9.92;100.00;99675.31;138051;1269;22076;-80
2023/10/05 00:25:17;;;;;;;19.80;8.50;;;;;;;9.90;100.00;99672.16;138049;1269;22229;-79
2023/10/05 00:28:24;;;;;;;17.30;8.40;;;;;;;9.89;100.00;99670.39;138064;1269;23117;-79
2023/10/05 00:31:25;;;;;;;15.10;9.10;;;;;;;9.88;99.97;99664.80;138059;1269;22520;-79
2023/10/05 00:34:27;;;;;;;15.90;8.70;;;;;;;9.87;99.86;99663.71;138067;1269;22107;-77
2023/10/05 00:37:28;;;;;;;15.60;9.30;;;;;;;9.87;99.84;99661.98;138053;1255;22060;-76
2023/10/05 00:40:35;;;;;;;18.10;8.90;;;;;;;9.85;99.73;99653.59;138020;1269;22071;-80
2023/10/05 00:43:36;;;;;;;15.50;8.80;;;;;;;9.83;99.92;99650.76;138051;1269;22038;-82
2023/10/05 00:46:39;;;;;;;15.90;9.20;;;;;;;9.82;99.96;99651.24;138092;1269;22088;-77
2023/10/05 00:49:45;;;;;;;17.70;9.30;;;;;;;9.79;99.85;99653.08;138046;1269;22110;-80
2023/10/05 00:52:51;;;;;;;16.90;8.90;;;;;;;9.76;99.79;99650.55;138037;1269;22056;-79
2023/10/05 00:55:57;;;;;;;14.50;9.00;;;;;;;9.75;99.79;99652.96;138071;1269;22538;-79
2023/10/05 00:59:04;;;;;;;16.70;9.20;;;;;;;9.74;99.99;99655.02;138040;1269;22162;-79
2023/10/05 01:02:14;;;;;;;17.30;8.70;;;;;;;9.72;99.99;99659.12;138095;1269;22039;-79
2023/10/05 01:05:16;;;;;;;17.80;8.70;;;;;;;9.72;100.00;99645.73;138091;1269;22743;-79
2023/10/05 01:08:23;;;;;;;17.90;8.50;;;;;;;9.71;100.00;99642.60;138073;1269;22238;-79
2023/10/05 01:11:33;;;;;;;17.30;8.30;;;;;;;9.71;100.00;99642.23;138076;1269;22041;-80
2023/10/05 01:14:34;;;;;;;16.30;9.80;;;;;;;9.72;100.00;99645.40;137911;1269;22068;-80
2023/10/05 01:17:35;;;;;;;20.30;9.70;;;;;;;9.73;99.99;99641.60;138089;1269;22059;-80
2023/10/05 01:20:37;;;;;;;22.50;9.30;;;;;;;9.74;100.00;99640.41;138138;1269;22080;-80
2023/10/05 01:23:38;;;;;;;17.30;9.10;;;;;;;9.77;100.00;99634.58;138203;1269;22209;-79
2023/10/05 01:26:40;;;;;;;20.90;9.20;;;;;;;9.79;99.96;99629.24;138179;1269;22505;-77
2023/10/05 01:29:42;;;;;;;19.00;8.90;;;;;;;9.79;100.00;99626.65;138177;1269;22096;-79
2023/10/05 01:32:43;;;;;;;16.60;8.90;;;;;;;9.79;99.91;99629.27;138168;1269;22097;-80
2023/10/05 01:35:46;;;;;;;14.60;8.50;;;;;;;9.79;99.99;99627.16;138183;1269;22059;-80
2023/10/05 01:38:48;;;;;;;17.30;9.30;;;;;;;9.78;99.95;99622.80;138149;1269;22056;-79
2023/10/05 01:41:49;;;;;;;19.30;8.60;;;;;;;9.79;99.88;99622.65;138124;1269;22216;-80
2023/10/05 01:44:50;;;;;;;16.80;8.50;;;;;;;9.80;99.87;99624.41;138122;1269;22074;-80
2023/10/05 01:47:52;;;;;;;13.70;8.10;;;;;;;9.80;99.65;99625.80;138072;1269;22169;-80
2023/10/05 01:50:54;;;;;;;48.70;10.70;;;;;;;9.80;99.24;99624.59;138095;1269;22218;-82
2023/10/05 01:54:05;;;;;;;25.30;9.20;;;;;;;9.81;99.18;99618.02;138077;1269;22706;-80
2023/10/05 01:57:08;;;;;;;97.90;14.10;;;;;;;9.80;98.60;99616.59;138064;1269;22039;-80
2023/10/05 02:00:14;;;;;;;15.30;8.40;;;;;;;9.78;98.45;99612.73;138118;1269;22035;-80
2023/10/05 02:03:17;;;;;;;13.50;7.70;;;;;;;9.74;97.70;99612.07;138079;1269;22047;-80
2023/10/05 02:06:19;;;;;;;19.00;8.20;;;;;;;9.67;97.42;99613.09;138099;1269;22366;-80
2023/10/05 02:09:20;;;;;;;18.50;7.10;;;;;;;9.57;97.69;99602.41;138101;1269;22066;-81
2023/10/05 02:12:22;;;;;;;30.40;8.20;;;;;;;9.50;98.12;99600.80;138106;1269;22285;-80
2023/10/05 02:15:28;;;;;;;12.60;7.30;;;;;;;9.46;99.24;99596.34;138090;1269;22436;-80
2023/10/05 02:18:31;;;;;;;12.20;6.60;;;;;;;9.45;99.57;99595.61;138100;1269;22073;-80
2023/10/05 02:21:36;;;;;;;13.20;7.60;;;;;;;9.39;99.50;99595.79;138060;1269;22067;-80
2023/10/05 02:24:40;;;;;;;13.00;6.40;;;;;;;9.35;99.86;99598.61;138073;1269;22857;-80
2023/10/05 02:27:46;;;;;;;17.80;7.30;;;;;;;9.31;100.00;99602.33;138097;1269;22836;-80
2023/10/05 02:30:47;;;;;;;11.10;6.80;;;;;;;9.28;100.00;99602.92;138102;1269;22047;-78
2023/10/05 02:33:52;;;;;;;15.90;7.00;;;;;;;9.26;100.00;99605.84;138106;1269;22099;-81
2023/10/05 02:36:54;;;;;;;43.90;8.70;;;;;;;9.23;100.00;99607.48;138156;1269;22070;-84
2023/10/05 02:39:57;;;;;;;19.60;8.50;;;;;;;9.19;100.00;99609.09;138151;1269;22130;-83
2023/10/05 02:43:02;;;;;;;12.40;7.40;;;;;;;9.20;100.00;99609.64;138159;1269;22069;-83
2023/10/05 02:46:09;;;;;;;11.60;6.90;;;;;;;9.25;100.00;99610.15;138187;1269;22696;-83
2023/10/05 02:49:10;;;;;;;60.90;11.10;;;;;;;9.28;100.00;99607.29;138126;1269;22118;-81
2023/10/05 02:52:13;;;;;;;13.30;7.50;;;;;;;9.32;100.00;99608.42;138090;1269;22098;-84
2023/10/05 02:55:14;;;;;;;14.20;7.90;;;;;;;9.38;100.00;99604.95;138114;1269;22255;-83
2023/10/05 02:58:16;;;;;;;16.50;7.00;;;;;;;9.45;100.00;99602.57;138099;1269;22062;-82
2023/10/05 03:01:17;;;;;;;16.90;8.70;;;;;;;9.50;100.00;99595.06;138141;1269;22079;-82
2023/10/05 03:04:21;;;;;;;14.90;8.70;;;;;;;9.56;100.00;99592.48;138141;1269;22333;-83
2023/10/05 03:07:25;;;;;;;18.90;9.60;;;;;;;9.65;100.00;99592.38;137985;1263;199476;-82
2023/10/05 03:10:26;;;;;;;16.20;10.40;;;;;;;9.71;100.00;99591.48;138163;1269;22510;-83
2023/10/05 03:13:28;;;;;;;21.00;10.50;;;;;;;9.75;100.00;99587.77;138114;1269;22072;-78
2023/10/05 03:16:29;;;;;;;26.00;11.20;;;;;;;9.78;100.00;99586.98;138163;1269;22114;-83
2023/10/05 03:19:34;;;;;;;19.40;10.20;;;;;;;9.79;100.00;99584.94;138142;1269;22106;-84
2023/10/05 03:22:37;;;;;;;17.20;10.20;;;;;;;9.79;100.00;99590.64;138162;1257;22046;-80
2023/10/05 03:25:38;;;;;;;22.00;10.10;;;;;;;9.76;100.00;99591.64;138164;1269;22164;-79
2023/10/05 03:28:41;;;;;;;19.70;10.80;;;;;;;9.73;100.00;99599.54;138183;1269;22108;-80
2023/10/05 03:31:52;;;;;;;19.20;11.10;;;;;;;9.70;99.95;99600.68;138158;1269;22128;-82
2023/10/05 03:34:55;;;;;;;27.90;10.50;;;;;;;9.68;99.74;99597.48;138148;1269;22131;-82
2023/10/05 03:37:56;;;;;;;23.20;12.50;;;;;;;9.66;99.81;99600.41;138116;1269;22154;-81
2023/10/05 03:41:01;;;;;;;25.30;11.60;;;;;;;9.62;99.33;99595.06;138130;1269;22126;-83
2023/10/05 03:44:03;;;;;;;18.10;9.00;;;;;;;9.57;99.50;99597.36;138143;1269;22142;-83
2023/10/05 03:47:04;;;;;;;28.20;10.30;;;;;;;9.57;99.65;99596.32;138146;1269;22283;-82
2023/10/05 03:50:05;;;;;;;23.30;10.00;;;;;;;9.55;98.63;99599.05;138164;1269;22109;-82
2023/10/05 03:53:15;;;;;;;17.30;8.30;;;;;;;9.50;98.30;99595.92;138158;1269;22471;-83
2023/10/05 03:56:21;;;;;;;35.40;8.70;;;;;;;9.48;98.21;99591.01;138115;1269;22080;-83
2023/10/05 03:59:22;;;;;;;20.20;6.70;;;;;;;9.41;98.20;99587.67;138155;1269;22059;-82
2023/10/05 04:02:25;;;;;;;36.70;8.90;;;;;;;9.36;98.39;99589.27;138082;1269;22105;-83
2023/10/05 04:05:26;;;;;;;11.10;6.80;;;;;;;9.29;98.77;99585.61;138071;1269;22181;-82
2023/10/05 04:08:28;;;;;;;13.20;7.00;;;;;;;9.17;98.51;99581.95;138070;1269;22144;-83
2023/10/05 04:11:29;;;;;;;13.50;6.70;;;;;;;9.04;99.26;99584.16;138141;1269;22095;-82
2023/10/05 04:14:33;;;;;;;9.60;6.10;;;;;;;8.96;99.68;99585.50;138096;1257;22105;-81
2023/10/05 04:17:35;;;;;;;19.60;8.60;;;;;;;8.89;99.82;99588.92;138045;1269;22091;-80
2023/10/05 04:20:36;;;;;;;15.70;7.80;;;;;;;8.84;100.00;99585.48;138053;1269;22583;-81
2023/10/05 04:23:37;;;;;;;19.00;8.00;;;;;;;8.80;100.00;99586.22;138065;1269;22145;-82
2023/10/05 04:26:39;;;;;;;13.80;7.20;;;;;;;8.76;100.00;99584.01;138077;1269;22824;-82
2023/10/05 04:29:40;;;;;;;16.50;8.20;;;;;;;8.75;100.00;99578.27;138039;1269;22335;-82
2023/10/05 04:32:41;;;;;;;20.70;8.30;;;;;;;8.76;100.00;99572.74;138050;1269;22599;-79
2023/10/05 04:35:45;;;;;;;22.20;11.00;;;;;;;8.83;100.00;99577.98;138110;1258;22094;-82
2023/10/05 04:38:46;;;;;;;26.50;13.60;;;;;;;8.93;100.00;99567.19;138046;1269;22144;-82
2023/10/05 04:41:49;;;;;;;21.00;12.50;;;;;;;9.07;100.00;99565.69;138059;1269;22085;-82
2023/10/05 04:44:52;;;;;;;41.60;13.10;;;;;;;9.25;100.00;99557.00;138034;1269;22211;-81
2023/10/05 04:47:58;;;;;;;99.00;16.00;;;;;;;9.42;100.00;99551.56;137998;1269;22112;-79
2023/10/05 04:51:00;;;;;;;32.60;14.50;;;;;;;9.60;100.00;99544.27;138118;1269;22099;-82
2023/10/05 04:54:02;;;;;;;102.70;18.70;;;;;;;9.75;100.00;99538.76;138057;1269;22114;-83
2023/10/05 04:57:07;;;;;;;33.90;14.90;;;;;;;9.92;100.00;99534.50;138032;1269;22163;-81
2023/10/05 05:06:45;;;;;;;40.20;14.70;;;;;;;10.30;99.80;99522.60;137911;1269;22183;-84
2023/10/05 05:09:46;;;;;;;27.90;14.40;;;;;;;10.35;99.01;99518.02;137991;1269;22147;-82
2023/10/05 05:12:49;;;;;;;53.70;16.40;;;;;;;10.43;98.10;99516.33;138017;1269;22273;-83
2023/10/05 05:15:50;;;;;;;33.70;14.20;;;;;;;10.50;97.65;99506.76;138022;1269;22559;-83
2023/10/05 05:18:55;;;;;;;38.50;17.60;;;;;;;10.57;97.23;99495.58;137989;1269;22283;-83
2023/10/05 05:21:56;;;;;;;38.10;14.40;;;;;;;10.63;96.77;99491.19;138022;1269;22170;-83
2023/10/05 05:24:58;;;;;;;24.50;13.30;;;;;;;10.67;96.46;99490.25;138027;1269;22132;-84
2023/10/05 05:28:01;;;;;;;19.50;11.10;;;;;;;10.73;95.98;99492.64;138071;1264;22298;-83
2023/10/05 05:31:02;;;;;;;18.10;11.50;;;;;;;10.79;95.26;99494.52;138108;1269;22193;-82
2023/10/05 05:34:10;;;;;;;23.60;11.70;;;;;;;10.86;94.78;99490.29;138145;1269;22275;-82
2023/10/05 05:37:26;;;;;;;30.00;11.50;;;;;;;10.92;94.44;99489.54;138143;1269;22618;-83
2023/10/05 05:40:29;;;;;;;24.30;11.40;;;;;;;11.00;94.31;99491.10;138130;1269;22111;-83
2023/10/05 05:43:33;;;;;;;26.60;12.20;;;;;;;11.07;93.88;99486.38;138126;1269;22573;-83
2023/10/05 05:46:35;;;;;;;31.40;12.70;;;;;;;11.15;93.57;99482.17;138133;1269;22269;-83
2023/10/05 05:49:40;;;;;;;24.60;11.90;;;;;;;11.21;93.20;99476.73;138056;1269;22114;-82
2023/10/05 05:52:41;;;;;;;57.60;13.20;;;;;;;11.28;92.78;99477.23;138073;1269;22727;-81
2023/10/05 05:55:52;;;;;;;24.50;12.60;;;;;;;11.36;92.09;99474.42;138007;1269;22142;-81
2023/10/05 05:58:56;;;;;;;387.50;32.80;;;;;;;11.44;91.75;99473.70;137944;1269;22162;-81
2023/10/05 06:02:00;;;;;;;40.20;12.70;;;;;;;11.56;91.48;99478.27;137985;1269;22184;-82
2023/10/05 06:05:08;;;;;;;39.80;10.90;;;;;;;11.69;90.90;99480.42;137925;1269;22484;-82
2023/10/05 06:08:09;;;;;;;24.50;11.80;;;;;;;11.79;89.88;99489.88;137989;1269;22210;-80
2023/10/05 06:11:12;;;;;;;34.70;11.50;;;;;;;11.86;89.50;99490.85;138018;1269;22713;-80
2023/10/05 06:14:13;;;;;;;24.80;11.80;;;;;;;11.97;89.37;99497.84;138001;1269;22120;-81
2023/10/05 06:17:15;;;;;;;21.90;10.50;;;;;;;12.14;88.89;99498.32;138008;1269;22333;-81
2023/10/05 06:20:17;;;;;;;17.20;9.80;;;;;;;12.30;88.11;99502.59;138003;1269;22544;-81
2023/10/05 06:23:19;;;;;;;19.70;10.10;;;;;;;12.43;87.41;99503.14;138006;1269;22139;-81
2023/10/05 06:26:21;;;;;;;22.30;10.50;;;;;;;12.55;86.53;99503.66;138002;1269;22145;-81
2023/10/05 06:29:23;;;;;;;22.20;9.90;;;;;;;12.64;86.24;99502.05;137994;1269;22620;-82
2023/10/05 06:32:24;;;;;;;24.30;10.10;;;;;;;12.73;86.15;99495.90;137952;1269;22882;-81
2023/10/05 06:35:26;;;;;;;31.90;10.00;;;;;;;12.92;86.34;99498.23;137980;1269;22310;-82
2023/10/05 06:38:27;;;;;;;32.00;8.90;;;;;;;13.54;90.42;99494.63;137991;1269;22666;-82
2023/10/05 06:41:28;;;;;;;68.80;12.70;;;;;;;14.55;90.11;99496.75;137974;1269;22717;-83
2023/10/05 06:44:29;;;;;;;27.20;8.40;;;;;;;15.48;88.61;99494.93;137994;1269;22274;-83
2023/10/05 06:47:37;;;;;;;29.00;8.50;;;;;;;16.09;83.79;99499.27;138044;1269;22125;-82
2023/10/05 06:50:38;;;;;;;27.60;9.40;;;;;;;16.55;83.35;99501.90;138011;1269;22173;-82
2023/10/05 06:53:39;;;;;;;15.70;8.30;;;;;;;16.81;79.09;99505.91;138056;1254;22095;-81
2023/10/05 06:56:41;;;;;;;23.10;9.00;;;;;;;16.90;78.19;99504.65;138032;1269;22269;-78
2023/10/05 06:59:42;;;;;;;23.50;9.00;;;;;;;16.89;76.13;99509.58;137953;1269;22264;-82
2023/10/05 07:02:44;;;;;;;17.50;7.60;;;;;;;16.76;76.01;99510.32;138031;1254;22112;-84
2023/10/05 07:05:46;;;;;;;14.30;8.00;;;;;;;16.75;73.85;99508.57;138003;1269;22096;-82
2023/10/05 07:08:47;;;;;;;21.70;8.40;;;;;;;16.56;74.78;99508.23;138010;1269;22126;-81
2023/10/05 07:11:49;;;;;;;21.30;8.60;;;;;;;16.52;74.63;99508.92;137969;1269;22831;-84
2023/10/05 07:14:51;;;;;;;25.80;8.60;;;;;;;16.34;74.52;99503.64;137974;1251;22183;-84
2023/10/05 07:17:53;;;;;;;79.20;13.30;;;;;;;16.22;74.15;99502.42;138006;1269;22621;-83
2023/10/05 07:20:54;;;;;;;110.70;14.20;;;;;;;16.15;74.76;99497.70;137981;1262;22122;-84
2023/10/05 07:24:01;;;;;;;90.20;12.50;;;;;;;16.50;76.31;99496.98;138017;1269;22061;-86
2023/10/05 07:27:07;;;;;;;117.00;14.00;;;;;;;16.78;74.92;99498.36;138011;1262;22165;-84
2023/10/05 07:30:09;;;;;;;90.80;16.20;;;;;;;17.10;74.75;99496.48;138014;1253;22102;-79
2023/10/05 07:33:11;;;;;;;47.50;10.60;;;;;;;17.25;72.54;99493.78;138011;1269;22083;-82
2023/10/05 07:36:13;;;;;;;51.30;10.10;;;;;;;17.39;71.24;99491.46;137968;1269;22125;-81
2023/10/05 07:39:14;;;;;;;63.20;9.80;;;;;;;17.38;70.80;99496.56;138023;1269;22125;-81
2023/10/05 07:42:16;;;;;;;12.70;6.50;;;;;;;17.78;71.75;99499.69;138047;1269;22100;-81
2023/10/05 07:45:17;;;;;;;15.30;8.20;;;;;;;17.74;68.44;99504.13;138014;1269;22192;-81
2023/10/05 07:48:19;;;;;;;14.20;7.20;;;;;;;17.63;66.89;99505.23;137899;1269;22912;-81
2023/10/05 07:51:23;;;;;;;20.10;7.50;;;;;;;17.37;66.53;99500.26;138014;1269;22104;-81
2023/10/05 07:54:25;;;;;;;25.50;6.90;;;;;;;17.31;66.08;99508.02;138007;1269;22161;-83
2023/10/05 07:57:30;;;;;;;18.40;6.40;;;;;;;17.21;66.82;99508.93;138032;1269;22095;-81
2023/10/05 08:00:33;;;;;;;20.30;6.60;;;;;;;17.36;67.20;99500.79;138018;1269;21916;-82
2023/10/05 08:03:35;;;;;;;81.10;10.90;;;;;;;17.46;65.53;99500.23;138022;1269;22138;-81
2023/10/05 08:06:36;;;;;;;23.10;6.60;;;;;;;17.58;64.74;99496.27;138047;1269;22138;-82
2023/10/05 08:09:37;;;;;;;20.40;6.10;;;;;;;17.45;63.78;99490.55;138064;1269;22157;-81
2023/10/05 08:12:39;;;;;;;21.90;5.60;;;;;;;17.38;64.63;99490.77;138056;1269;22592;-82
2023/10/05 08:15:40;;;;;;;16.90;6.70;;;;;;;17.28;64.13;99489.56;138038;1269;22098;-80
2023/10/05 08:18:43;;;;;;;34.30;7.20;;;;;;;17.37;66.12;99481.61;138028;1269;22110;-81
2023/10/05 08:21:44;;;;;;;10.90;5.10;;;;;;;17.65;64.24;99480.94;137962;1269;22142;-81
2023/10/05 08:24:45;;;;;;;11.10;5.50;;;;;;;17.65;64.91;99472.31;137973;1269;22093;-83
2023/10/05 08:27:48;;;;;;;21.20;6.10;;;;;;;17.63;62.48;99469.50;138014;1269;22109;-83
2023/10/05 08:31:04;;;;;;;15.60;6.00;;;;;;;17.43;63.24;99469.45;137957;1269;22106;-81
2023/10/05 08:34:08;;;;;;;20.70;5.80;;;;;;;17.48;63.94;99473.81;137932;1269;22162;-80
2023/10/05 08:37:11;;;;;;;22.20;5.70;;;;;;;17.61;63.39;99467.77;137987;1269;22108;-80
2023/10/05 08:40:30;;;;;;;22.30;5.80;;;;;;;17.56;62.97;99461.10;138015;1269;22110;-80
2023/10/05 08:43:31;;;;;;;32.40;6.90;;;;;;;17.83;63.64;99459.71;138006;1269;22684;-77
2023/10/05 08:46:32;;;;;;;19.60;5.90;;;;;;;17.90;61.88;99458.06;137908;1269;22110;-76
2023/10/05 08:49:34;;;;;;;10.60;4.90;;;;;;;17.89;63.05;99461.94;137959;1269;22123;-81
2023/10/05 08:52:40;;;;;;;33.90;7.30;;;;;;;17.79;61.29;99460.27;137966;1269;22261;-80
2023/10/05 08:55:45;;;;;;;18.30;5.00;;;;;;;17.64;60.45;99455.42;137972;1262;22829;-80
2023/10/05 08:58:46;;;;;;;24.10;4.90;;;;;;;17.56;60.31;99459.70;137958;1269;22117;-82
2023/10/05 09:01:50;;;;;;;17.20;4.80;;;;;;;17.31;60.46;99465.27;138013;1269;22227;-81
2023/10/05 09:04:57;;;;;;;15.40;4.50;;;;;;;17.20;61.50;99468.48;138037;1269;22098;-80
2023/10/05 09:07:58;;;;;;;13.70;5.00;;;;;;;17.25;60.63;99466.00;137991;1269;22162;-81
2023/10/05 09:10:59;;;;;;;12.40;4.60;;;;;;;17.32;61.23;99468.79;137988;1269;22566;-81
2023/10/05 09:14:12;;;;;;;12.30;5.00;;;;;;;17.42;60.89;99468.23;137997;1269;22231;-79
2023/10/05 09:17:15;;;;;;;9.00;4.40;;;;;;;17.44;59.86;99474.02;137955;1269;22455;-78
2023/10/05 09:20:17;;;;;;;10.60;4.50;;;;;;;17.31;59.24;99467.73;138043;1269;22523;-81
2023/10/05 09:23:20;;;;;;;14.50;4.20;;;;;;;17.40;60.74;99463.64;138002;1269;22112;-80
2023/10/05 09:26:22;;;;;;;16.50;5.00;;;;;;;17.76;59.78;99459.58;137962;1262;21709;-80
2023/10/05 09:29:23;;;;;;;21.70;5.00;;;;;;;17.88;59.09;99466.36;137975;1269;22157;-80
2023/10/05 09:32:25;;;;;;;18.00;5.30;;;;;;;17.92;59.97;99463.50;137973;1269;22088;-81
2023/10/05 09:35:27;;;;;;;9.30;4.50;;;;;;;17.99;60.34;99460.11;137950;1269;22104;-80
2023/10/05 09:38:28;;;;;;;7.70;4.40;;;;;;;18.13;60.29;99457.69;138001;1269;22146;-82
2023/10/05 09:41:29;;;;;;;24.00;5.90;;;;;;;18.11;58.80;99450.13;138012;1269;22093;-78
2023/10/05 09:44:30;;;;;;;35.80;5.90;;;;;;;18.27;60.40;99438.02;138002;1269;22092;-79
2023/10/05 09:47:35;;;;;;;38.00;5.60;;;;;;;18.51;57.56;99437.27;138039;1269;22257;-78
2023/10/05 09:50:41;;;;;;;14.50;4.40;;;;;;;18.53;56.45;99435.84;138086;1269;22163;-80
2023/10/05 09:53:43;;;;;;;17.40;5.00;;;;;;;18.53;55.85;99434.61;138066;1269;22115;-79
2023/10/05 09:56:47;;;;;;;14.40;4.60;;;;;;;18.62;56.30;99431.70;138062;1269;22092;-79
2023/10/05 09:59:57;;;;;;;29.40;5.40;;;;;;;18.96;56.51;99428.84;138132;1269;22230;-79
2023/10/05 10:02:58;;;;;;;10.50;5.00;;;;;;;19.15;54.66;99427.39;138000;1269;22099;-80
2023/10/05 10:06:07;;;;;;;19.10;5.60;;;;;;;19.27;54.36;99430.04;137993;1269;22640;-78
2023/10/05 10:09:09;;;;;;;26.30;5.60;;;;;;;19.55;54.83;99420.64;137986;1269;22236;-80
2023/10/05 10:12:11;;;;;;;17.20;4.40;;;;;;;19.70;53.15;99419.52;137934;1269;22077;-79
2023/10/05 10:15:25;;;;;;;18.80;5.00;;;;;;;19.62;52.27;99415.78;137914;1269;22351;-79
2023/10/05 10:18:37;;;;;;;13.50;5.20;;;;;;;19.65;53.17;99414.85;137968;1269;22124;-78
2023/10/05 10:21:41;;;;;;;16.50;5.30;;;;;;;19.57;53.44;99417.09;137886;1269;22182;-77
2023/10/05 10:24:42;;;;;;;11.30;4.40;;;;;;;19.64;55.11;99414.15;137931;1269;22097;-79
2023/10/05 10:27:43;;;;;;;10.60;5.30;;;;;;;19.65;52.62;99411.85;137958;1265;22117;-78
2023/10/05 10:30:47;;;;;;;11.80;4.00;;;;;;;19.58;53.30;99405.25;137936;1269;22555;-79
2023/10/05 10:33:51;;;;;;;19.20;5.00;;;;;;;19.36;52.75;99402.20;137917;1269;22574;-81
2023/10/05 10:36:52;;;;;;;13.10;5.00;;;;;;;19.20;53.21;99405.08;137932;1269;22118;-79
2023/10/05 10:39:56;;;;;;;12.00;4.70;;;;;;;19.26;51.75;99403.93;137925;1269;22432;-79
2023/10/05 10:43:06;;;;;;;11.80;4.30;;;;;;;19.07;51.18;99399.08;137968;1269;22150;-79
2023/10/05 10:46:13;;;;;;;14.10;4.60;;;;;;;19.09;51.74;99399.23;137940;1269;22145;-80
2023/10/05 10:49:18;;;;;;;12.00;4.60;;;;;;;19.14;52.00;99401.11;137979;1269;22149;-78
2023/10/05 10:52:19;;;;;;;13.00;4.00;;;;;;;19.05;52.04;99395.73;137868;1269;22153;-79
2023/10/05 10:55:21;;;;;;;11.10;4.30;;;;;;;19.18;52.49;99397.70;137917;1269;22579;-79
2023/10/05 10:58:24;;;;;;;9.70;4.00;;;;;;;18.99;50.91;99400.92;137951;1269;22094;-79
2023/10/05 11:01:29;;;;;;;16.90;4.00;;;;;;;18.85;51.25;99398.45;137970;1269;22614;-80
2023/10/05 11:04:31;;;;;;;12.00;4.70;;;;;;;18.96;51.38;99394.78;137948;1269;22123;-80
2023/10/05 11:07:34;;;;;;;9.00;4.00;;;;;;;19.03;50.63;99400.17;137972;1269;22124;-79
2023/10/05 11:10:35;;;;;;;28.60;5.60;;;;;;;18.96;50.77;99397.27;137920;1269;22500;-80
2023/10/05 11:13:36;;;;;;;12.80;4.60;;;;;;;18.93;50.43;99395.55;137967;1269;22180;-80
2023/10/05 11:16:43;;;;;;;11.00;4.20;;;;;;;19.03;51.36;99388.00;137920;1269;22108;-79
2023/10/05 11:19:46;;;;;;;12.20;5.00;;;;;;;19.00;52.12;99386.27;137911;1269;22317;-79
2023/10/05 11:22:47;;;;;;;14.20;4.30;;;;;;;19.18;51.81;99391.70;137925;1269;22077;-80
2023/10/05 11:25:51;;;;;;;16.60;5.20;;;;;;;19.14;52.44;99384.88;137931;1269;22571;-81
2023/10/05 11:28:53;;;;;;;13.40;5.10;;;;;;;19.22;51.69;99378.95;137986;1269;22103;-80
2023/10/05 11:32:01;;;;;;;15.90;4.70;;;;;;;19.32;52.10;99381.80;137937;1269;22110;-79
2023/10/05 11:35:04;;;;;;;6.10;3.60;;;;;;;19.31;50.50;99378.81;137936;1269;22117;-81
2023/10/05 11:38:06;;;;;;;13.60;4.00;;;;;;;18.85;50.02;99372.38;137932;1269;22094;-82
2023/10/05 11:41:09;;;;;;;12.50;4.30;;;;;;;18.62;50.55;99366.49;137913;1269;22337;-79
2023/10/05 11:44:12;;;;;;;10.60;4.60;;;;;;;18.48;50.41;99370.15;137946;1269;22103;-81
2023/10/05 11:47:18;;;;;;;9.70;3.70;;;;;;;18.28;51.05;99364.58;137977;1269;22200;-84
2023/10/05 11:50:32;;;;;;;11.70;3.90;;;;;;;18.36;52.85;99360.08;137954;1269;22287;-80
2023/10/05 11:53:34;;;;;;;21.30;5.00;;;;;;;18.68;52.03;99354.08;137944;1269;22264;-82
2023/10/05 12:00:04;;;;;;;11.90;4.60;;;;;;;18.74;51.14;99349.77;137957;1269;22128;-84
2023/10/05 12:03:09;;;;;;;17.30;4.80;;;;;;;18.73;50.70;99356.31;137939;1269;22223;-82
2023/10/05 12:06:15;;;;;;;10.80;4.80;;;;;;;18.81;51.21;99353.55;137905;1269;22085;-84
2023/10/05 12:09:27;;;;;;;7.20;3.50;;;;;;;18.84;50.43;99352.10;137911;1269;22100;-82
2023/10/05 12:12:32;;;;;;;6.80;4.60;;;;;;;18.57;50.47;99348.20;137909;1269;22117;-83
2023/10/05 12:15:36;;;;;;;14.20;4.70;;;;;;;18.34;50.58;99343.17;137940;1269;22008;-84
2023/10/05 12:18:38;;;;;;;9.40;4.30;;;;;;;18.34;50.99;99341.07;137917;1269;22219;-84
2023/10/05 12:21:53;;;;;;;9.30;4.10;;;;;;;18.38;51.31;99329.73;137907;1269;22096;-83
2023/10/05 12:24:57;;;;;;;27.70;4.40;;;;;;;18.55;51.82;99329.02;137870;1269;22147;-84
2023/10/05 12:27:59;;;;;;;14.40;4.60;;;;;;;18.72;51.05;99330.41;137852;1269;22101;-82
2023/10/05 12:31:01;;;;;;;12.70;4.20;;;;;;;18.86;50.80;99331.09;137937;1269;22276;-83
2023/10/05 12:34:03;;;;;;;11.50;5.30;;;;;;;18.97;50.65;99335.70;137881;1259;22249;-82
2023/10/05 12:37:08;;;;;;;9.20;4.80;;;;;;;18.97;49.97;99329.88;137861;1269;22248;-83
2023/10/05 12:40:26;;;;;;;8.60;4.00;;;;;;;18.89;50.22;99326.12;137902;1269;22324;-81
2023/10/05 12:43:31;;;;;;;23.20;5.30;;;;;;;18.86;49.92;99328.09;137907;1269;22161;-82
2023/10/05 12:46:39;;;;;;;9.00;4.50;;;;;;;18.85;49.52;99325.99;137904;1269;22076;-83
2023/10/05 12:49:40;;;;;;;7.10;4.30;;;;;;;18.97;50.16;99319.83;137937;1262;22191;-83
2023/10/05 12:52:45;;;;;;;8.80;4.70;;;;;;;19.02;49.67;99320.81;137853;1269;22153;-81
2023/10/05 12:55:47;;;;;;;11.60;5.30;;;;;;;18.87;49.74;99319.26;137922;1269;22229;-82
2023/10/05 12:58:49;;;;;;;13.70;5.00;;;;;;;18.80;50.26;99314.42;137905;1269;22128;-84
2023/10/05 13:01:51;;;;;;;12.90;5.00;;;;;;;18.85;50.73;99313.66;137925;1269;22150;-84
2023/10/05 13:04:57;;;;;;;10.50;4.60;;;;;;;18.90;51.49;99306.88;137941;1269;22180;-83
2023/10/05 13:08:01;;;;;;;13.90;4.90;;;;;;;18.93;50.92;99299.08;137951;1269;22112;-85
2023/10/05 13:11:03;;;;;;;;;;;;;;;18.85;51.75;99297.07;138002;1269;22728;-84
2023/10/05 13:14:08;;;;;;;21.20;5.90;;;;;;;18.91;52.19;99299.64;137928;1269;22118;-83
2023/10/05 13:17:12;;;;;;;19.70;6.00;;;;;;;18.94;51.39;99299.23;137962;1269;22127;-84
2023/10/05 13:20:15;;;;;;;20.50;6.20;;;;;;;18.91;51.89;99302.64;137968;1269;22124;-83
2023/10/05 13:23:19;;;;;;;14.30;5.80;;;;;;;18.85;51.92;99302.01;137881;1269;22273;-82
2023/10/05 13:26:20;;;;;;;18.80;6.00;;;;;;;18.88;51.94;99307.08;137918;1269;22283;-81
2023/10/05 13:29:25;;;;;;;13.50;5.30;;;;;;;18.90;51.66;99314.46;137922;1252;22103;-83
2023/10/05 13:32:26;;;;;;;12.40;5.80;;;;;;;18.85;51.36;99314.55;137910;1269;22176;-83
2023/10/05 13:35:30;;;;;;;17.20;5.30;;;;;;;18.79;50.81;99311.09;137911;1269;22783;-84
2023/10/05 13:38:36;;;;;;;15.30;5.80;;;;;;;18.63;51.31;99308.84;137914;1265;22215;-83
2023/10/05 13:41:38;;;;;;;13.50;6.00;;;;;;;18.64;51.72;99303.88;137892;1269;22889;-83
2023/10/05 13:44:40;;;;;;;16.60;5.70;;;;;;;18.61;51.50;99304.80;137963;1269;22713;-83
2023/10/05 13:47:41;;;;;;;10.70;5.70;;;;;;;18.53;51.77;99297.31;137992;1269;23159;-82
2023/10/05 13:50:43;;;;;;;12.30;5.50;;;;;;;18.59;52.06;99291.61;137949;1269;22255;-83
2023/10/05 13:53:44;;;;;;;91.00;10.90;;;;;;;18.66;51.63;99291.53;137978;1265;22118;-83
2023/10/05 13:56:48;;;;;;;11.40;5.70;;;;;;;18.70;51.88;99294.65;137970;1269;22787;-85
2023/10/05 13:59:54;;;;;;;16.80;6.00;;;;;;;18.62;51.31;99291.56;137967;1269;22239;-84
2023/10/05 14:03:00;;;;;;;16.70;5.70;;;;;;;18.43;51.24;99294.09;138004;1269;22294;-83
2023/10/05 14:06:04;;;;;;;10.70;5.70;;;;;;;18.25;51.51;99291.84;137972;1269;22655;-82
2023/10/05 14:09:05;;;;;;;16.20;6.70;;;;;;;18.07;52.62;99288.68;137999;1269;23033;-83
2023/10/05 14:12:08;;;;;;;11.10;5.80;;;;;;;18.22;53.26;99284.48;138020;1269;22105;-84